<?xml version='1.0' encoding='UTF-8'?>
<gpx version="1.1" creator="https://www.komoot.de" xmlns="http://www.topografix.com/GPX/1/1" xmlns:xsi="http://www.w3.org/2001/XMLSchema-instance" xsi:schemaLocation="http://www.topografix.com/GPX/1/1 http://www.topografix.com/GPX/1/1/gpx.xsd">
  <metadata>
    <name>Langgrütstr leise</name>
    <author>
      <link href="https://www.komoot.de">
        <text>komoot</text>
        <type>text/html</type>
      </link>
    </author>
  </metadata>
  <trk>
    <name>Langgrütstr leise</name>
    <trkseg>
      <trkpt lat="47.374236" lon="8.491686">
        <ele>440.515237</ele>
        <time>2022-04-06T13:57:53.000Z</time>
      </trkpt>
      <trkpt lat="47.374263" lon="8.491550">
        <ele>440.515237</ele>
        <time>2022-04-06T13:58:26.999Z</time>
      </trkpt>
      <trkpt lat="47.374275" lon="8.491409">
        <ele>440.515237</ele>
        <time>2022-04-06T13:58:35.999Z</time>
      </trkpt>
      <trkpt lat="47.374315" lon="8.491281">
        <ele>440.515237</ele>
        <time>2022-04-06T13:58:45.999Z</time>
      </trkpt>
      <trkpt lat="47.374349" lon="8.491158">
        <ele>440.515237</ele>
        <time>2022-04-06T13:58:52.999Z</time>
      </trkpt>
      <trkpt lat="47.374387" lon="8.491029">
        <ele>440.515237</ele>
        <time>2022-04-06T13:59:00.999Z</time>
      </trkpt>
      <trkpt lat="47.374369" lon="8.490870">
        <ele>440.515237</ele>
        <time>2022-04-06T13:59:10.999Z</time>
      </trkpt>
      <trkpt lat="47.374394" lon="8.490734">
        <ele>440.515237</ele>
        <time>2022-04-06T13:59:19.998Z</time>
      </trkpt>
      <trkpt lat="47.374413" lon="8.490586">
        <ele>440.515237</ele>
        <time>2022-04-06T13:59:26.998Z</time>
      </trkpt>
      <trkpt lat="47.374418" lon="8.490442">
        <ele>440.515237</ele>
        <time>2022-04-06T13:59:34.998Z</time>
      </trkpt>
      <trkpt lat="47.374489" lon="8.490342">
        <ele>440.206734</ele>
        <time>2022-04-06T13:59:42.000Z</time>
      </trkpt>
      <trkpt lat="47.374546" lon="8.490220">
        <ele>439.799129</ele>
        <time>2022-04-06T13:59:47.999Z</time>
      </trkpt>
      <trkpt lat="47.374588" lon="8.490084">
        <ele>439.388070</ele>
        <time>2022-04-06T13:59:57.999Z</time>
      </trkpt>
      <trkpt lat="47.374629" lon="8.489959">
        <ele>439.006117</ele>
        <time>2022-04-06T14:00:03.999Z</time>
      </trkpt>
      <trkpt lat="47.374669" lon="8.489838">
        <ele>438.635832</ele>
        <time>2022-04-06T14:00:10.999Z</time>
      </trkpt>
      <trkpt lat="47.374702" lon="8.489700">
        <ele>438.233362</ele>
        <time>2022-04-06T14:00:20.999Z</time>
      </trkpt>
      <trkpt lat="47.374762" lon="8.489589">
        <ele>437.842791</ele>
        <time>2022-04-06T14:00:28.999Z</time>
      </trkpt>
      <trkpt lat="47.374756" lon="8.489453">
        <ele>437.467994</ele>
        <time>2022-04-06T14:00:33.999Z</time>
      </trkpt>
      <trkpt lat="47.374787" lon="8.489310">
        <ele>437.055082</ele>
        <time>2022-04-06T14:00:39.999Z</time>
      </trkpt>
      <trkpt lat="47.374797" lon="8.489167">
        <ele>436.659738</ele>
        <time>2022-04-06T14:00:47.999Z</time>
      </trkpt>
      <trkpt lat="47.374827" lon="8.489037">
        <ele>436.282047</ele>
        <time>2022-04-06T14:00:55.999Z</time>
      </trkpt>
      <trkpt lat="47.374766" lon="8.488925">
        <ele>435.886790</ele>
        <time>2022-04-06T14:01:06.998Z</time>
      </trkpt>
      <trkpt lat="47.374720" lon="8.488798">
        <ele>435.490719</ele>
        <time>2022-04-06T14:01:13.998Z</time>
      </trkpt>
      <trkpt lat="47.374654" lon="8.488690">
        <ele>435.090663</ele>
        <time>2022-04-06T14:01:20.998Z</time>
      </trkpt>
      <trkpt lat="47.374585" lon="8.488590">
        <ele>434.698057</ele>
        <time>2022-04-06T14:01:27.998Z</time>
      </trkpt>
      <trkpt lat="47.374538" lon="8.488464">
        <ele>434.302465</ele>
        <time>2022-04-06T14:01:35.998Z</time>
      </trkpt>
      <trkpt lat="47.374518" lon="8.488330">
        <ele>433.925115</ele>
        <time>2022-04-06T14:01:44.000Z</time>
      </trkpt>
      <trkpt lat="47.374582" lon="8.488232">
        <ele>433.550711</ele>
        <time>2022-04-06T14:01:51.000Z</time>
      </trkpt>
      <trkpt lat="47.374614" lon="8.488106">
        <ele>433.288186</ele>
        <time>2022-04-06T14:01:58.999Z</time>
      </trkpt>
      <trkpt lat="47.374658" lon="8.487982">
        <ele>434.259604</ele>
        <time>2022-04-06T14:02:04.999Z</time>
      </trkpt>
      <trkpt lat="47.374695" lon="8.487861">
        <ele>435.180868</ele>
        <time>2022-04-06T14:02:10.999Z</time>
      </trkpt>
      <trkpt lat="47.374725" lon="8.487731">
        <ele>436.133894</ele>
        <time>2022-04-06T14:02:17.999Z</time>
      </trkpt>
      <trkpt lat="47.374730" lon="8.487598">
        <ele>437.058219</ele>
        <time>2022-04-06T14:02:26.999Z</time>
      </trkpt>
      <trkpt lat="47.374768" lon="8.487477">
        <ele>437.983746</ele>
        <time>2022-04-06T14:02:34.999Z</time>
      </trkpt>
      <trkpt lat="47.374838" lon="8.487375">
        <ele>438.991441</ele>
        <time>2022-04-06T14:02:46.999Z</time>
      </trkpt>
      <trkpt lat="47.374851" lon="8.487234">
        <ele>439.978883</ele>
        <time>2022-04-06T14:02:58.999Z</time>
      </trkpt>
      <trkpt lat="47.374793" lon="8.487130">
        <ele>440.913769</ele>
        <time>2022-04-06T14:03:06.999Z</time>
      </trkpt>
      <trkpt lat="47.374766" lon="8.486995">
        <ele>441.890551</ele>
        <time>2022-04-06T14:03:16.998Z</time>
      </trkpt>
      <trkpt lat="47.374663" lon="8.486985">
        <ele>442.948248</ele>
        <time>2022-04-06T14:03:30.998Z</time>
      </trkpt>
      <trkpt lat="47.374579" lon="8.486927">
        <ele>443.898426</ele>
        <time>2022-04-06T14:03:36.998Z</time>
      </trkpt>
      <trkpt lat="47.374531" lon="8.486796">
        <ele>444.931986</ele>
        <time>2022-04-06T14:03:44.998Z</time>
      </trkpt>
      <trkpt lat="47.374505" lon="8.486659">
        <ele>445.919275</ele>
        <time>2022-04-06T14:03:51.000Z</time>
      </trkpt>
      <trkpt lat="47.374473" lon="8.486520">
        <ele>446.938029</ele>
        <time>2022-04-06T14:03:55.999Z</time>
      </trkpt>
      <trkpt lat="47.374406" lon="8.486411">
        <ele>447.959510</ele>
        <time>2022-04-06T14:04:07.000Z</time>
      </trkpt>
      <trkpt lat="47.374319" lon="8.486370">
        <ele>448.895279</ele>
        <time>2022-04-06T14:04:17.000Z</time>
      </trkpt>
      <trkpt lat="47.374235" lon="8.486312">
        <ele>449.845458</ele>
        <time>2022-04-06T14:04:23.000Z</time>
      </trkpt>
      <trkpt lat="47.374143" lon="8.486307">
        <ele>450.788800</ele>
        <time>2022-04-06T14:04:30.999Z</time>
      </trkpt>
      <trkpt lat="47.374066" lon="8.486218">
        <ele>451.627625</ele>
        <time>2022-04-06T14:04:42.999Z</time>
      </trkpt>
      <trkpt lat="47.373975" lon="8.486149">
        <ele>451.530394</ele>
        <time>2022-04-06T14:04:50.999Z</time>
      </trkpt>
      <trkpt lat="47.373879" lon="8.486105">
        <ele>451.434854</ele>
        <time>2022-04-06T14:04:58.999Z</time>
      </trkpt>
      <trkpt lat="47.373798" lon="8.486019">
        <ele>451.340030</ele>
        <time>2022-04-06T14:05:04.999Z</time>
      </trkpt>
      <trkpt lat="47.373722" lon="8.485940">
        <ele>451.251691</ele>
        <time>2022-04-06T14:05:16.999Z</time>
      </trkpt>
      <trkpt lat="47.373629" lon="8.485892">
        <ele>451.158052</ele>
        <time>2022-04-06T14:05:25.999Z</time>
      </trkpt>
      <trkpt lat="47.373546" lon="8.485818">
        <ele>451.065898</ele>
        <time>2022-04-06T14:05:36.998Z</time>
      </trkpt>
      <trkpt lat="47.373626" lon="8.485889">
        <ele>450.977182</ele>
        <time>2022-04-06T14:05:52.998Z</time>
      </trkpt>
      <trkpt lat="47.373689" lon="8.486009">
        <ele>450.879448</ele>
        <time>2022-04-06T14:06:03.000Z</time>
      </trkpt>
      <trkpt lat="47.373765" lon="8.486091">
        <ele>450.789983</ele>
        <time>2022-04-06T14:06:10.999Z</time>
      </trkpt>
      <trkpt lat="47.373847" lon="8.486159">
        <ele>450.700595</ele>
        <time>2022-04-06T14:06:33.999Z</time>
      </trkpt>
      <trkpt lat="47.373929" lon="8.486228">
        <ele>450.610889</ele>
        <time>2022-04-06T14:06:45.999Z</time>
      </trkpt>
      <trkpt lat="47.374025" lon="8.486244">
        <ele>450.519064</ele>
        <time>2022-04-06T14:06:54.999Z</time>
      </trkpt>
      <trkpt lat="47.374119" lon="8.486271">
        <ele>450.428044</ele>
        <time>2022-04-06T14:07:00.999Z</time>
      </trkpt>
      <trkpt lat="47.374186" lon="8.486380">
        <ele>450.333292</ele>
        <time>2022-04-06T14:07:06.999Z</time>
      </trkpt>
      <trkpt lat="47.374253" lon="8.486516">
        <ele>450.225040</ele>
        <time>2022-04-06T14:07:12.999Z</time>
      </trkpt>
      <trkpt lat="47.374334" lon="8.486596">
        <ele>450.132418</ele>
        <time>2022-04-06T14:07:19.998Z</time>
      </trkpt>
      <trkpt lat="47.374411" lon="8.486704">
        <ele>450.031478</ele>
        <time>2022-04-06T14:07:28.998Z</time>
      </trkpt>
      <trkpt lat="47.374466" lon="8.486815">
        <ele>449.942948</ele>
        <time>2022-04-06T14:07:35.998Z</time>
      </trkpt>
      <trkpt lat="47.374529" lon="8.486920">
        <ele>449.323346</ele>
        <time>2022-04-06T14:07:42.998Z</time>
      </trkpt>
      <trkpt lat="47.374603" lon="8.486995">
        <ele>448.668249</ele>
        <time>2022-04-06T14:07:48.998Z</time>
      </trkpt>
      <trkpt lat="47.374688" lon="8.487087">
        <ele>447.899038</ele>
        <time>2022-04-06T14:07:54.998Z</time>
      </trkpt>
      <trkpt lat="47.374752" lon="8.487191">
        <ele>447.204447</ele>
        <time>2022-04-06T14:08:08.000Z</time>
      </trkpt>
      <trkpt lat="47.374720" lon="8.487348">
        <ele>446.394042</ele>
        <time>2022-04-06T14:08:19.999Z</time>
      </trkpt>
      <trkpt lat="47.374658" lon="8.487452">
        <ele>445.709183</ele>
        <time>2022-04-06T14:08:26.999Z</time>
      </trkpt>
      <trkpt lat="47.374618" lon="8.487574">
        <ele>445.039203</ele>
        <time>2022-04-06T14:08:36.999Z</time>
      </trkpt>
      <trkpt lat="47.374557" lon="8.487696">
        <ele>444.289626</ele>
        <time>2022-04-06T14:08:43.999Z</time>
      </trkpt>
      <trkpt lat="47.374488" lon="8.487802">
        <ele>443.562889</ele>
        <time>2022-04-06T14:08:52.999Z</time>
      </trkpt>
      <trkpt lat="47.374406" lon="8.487868">
        <ele>442.881249</ele>
        <time>2022-04-06T14:09:00.999Z</time>
      </trkpt>
      <trkpt lat="47.374390" lon="8.488013">
        <ele>442.155087</ele>
        <time>2022-04-06T14:09:06.999Z</time>
      </trkpt>
      <trkpt lat="47.374400" lon="8.488155">
        <ele>441.449421</ele>
        <time>2022-04-06T14:09:11.999Z</time>
      </trkpt>
      <trkpt lat="47.374396" lon="8.488322">
        <ele>440.623453</ele>
        <time>2022-04-06T14:09:17.999Z</time>
      </trkpt>
      <trkpt lat="47.374388" lon="8.488459">
        <ele>439.943773</ele>
        <time>2022-04-06T14:09:25.999Z</time>
      </trkpt>
      <trkpt lat="47.374317" lon="8.488559">
        <ele>439.227626</ele>
        <time>2022-04-06T14:09:30.998Z</time>
      </trkpt>
      <trkpt lat="47.374239" lon="8.488633">
        <ele>438.550940</ele>
        <time>2022-04-06T14:09:37.998Z</time>
      </trkpt>
      <trkpt lat="47.374158" lon="8.488713">
        <ele>437.839681</ele>
        <time>2022-04-06T14:09:45.998Z</time>
      </trkpt>
      <trkpt lat="47.374122" lon="8.488844">
        <ele>437.140885</ele>
        <time>2022-04-06T14:09:54.998Z</time>
      </trkpt>
      <trkpt lat="47.374051" lon="8.488945">
        <ele>437.145056</ele>
        <time>2022-04-06T14:10:01.998Z</time>
      </trkpt>
      <trkpt lat="47.373996" lon="8.489059">
        <ele>437.762169</ele>
        <time>2022-04-06T14:10:10.000Z</time>
      </trkpt>
      <trkpt lat="47.373922" lon="8.489144">
        <ele>438.372527</ele>
        <time>2022-04-06T14:10:15.999Z</time>
      </trkpt>
      <trkpt lat="47.373849" lon="8.489224">
        <ele>438.964364</ele>
        <time>2022-04-06T14:10:21.999Z</time>
      </trkpt>
      <trkpt lat="47.373780" lon="8.489328">
        <ele>439.606264</ele>
        <time>2022-04-06T14:10:31.999Z</time>
      </trkpt>
      <trkpt lat="47.373708" lon="8.489407">
        <ele>440.190245</ele>
        <time>2022-04-06T14:10:37.999Z</time>
      </trkpt>
      <trkpt lat="47.373616" lon="8.489474">
        <ele>440.858078</ele>
        <time>2022-04-06T14:10:46.999Z</time>
      </trkpt>
      <trkpt lat="47.373555" lon="8.489584">
        <ele>441.484908</ele>
        <time>2022-04-06T14:10:53.999Z</time>
      </trkpt>
      <trkpt lat="47.373484" lon="8.489680">
        <ele>442.111649</ele>
        <time>2022-04-06T14:11:01.999Z</time>
      </trkpt>
      <trkpt lat="47.373442" lon="8.489811">
        <ele>442.750671</ele>
        <time>2022-04-06T14:11:11.999Z</time>
      </trkpt>
      <trkpt lat="47.373372" lon="8.489913">
        <ele>443.390922</ele>
        <time>2022-04-06T14:11:18.999Z</time>
      </trkpt>
      <trkpt lat="47.373279" lon="8.489991">
        <ele>444.087231</ele>
        <time>2022-04-06T14:11:25.999Z</time>
      </trkpt>
      <trkpt lat="47.373204" lon="8.490070">
        <ele>444.687005</ele>
        <time>2022-04-06T14:11:34.998Z</time>
      </trkpt>
      <trkpt lat="47.373147" lon="8.490200">
        <ele>445.369808</ele>
        <time>2022-04-06T14:11:41.998Z</time>
      </trkpt>
      <trkpt lat="47.373065" lon="8.490306">
        <ele>446.079319</ele>
        <time>2022-04-06T14:11:48.998Z</time>
      </trkpt>
      <trkpt lat="47.372974" lon="8.490350">
        <ele>446.702711</ele>
        <time>2022-04-06T14:11:55.998Z</time>
      </trkpt>
      <trkpt lat="47.372905" lon="8.490439">
        <ele>447.299173</ele>
        <time>2022-04-06T14:12:06.998Z</time>
      </trkpt>
      <trkpt lat="47.372901" lon="8.490577">
        <ele>447.908166</ele>
        <time>2022-04-06T14:12:17.000Z</time>
      </trkpt>
      <trkpt lat="47.372819" lon="8.490637">
        <ele>448.503961</ele>
        <time>2022-04-06T14:12:23.999Z</time>
      </trkpt>
      <trkpt lat="47.372731" lon="8.490674">
        <ele>448.391906</ele>
        <time>2022-04-06T14:12:30.999Z</time>
      </trkpt>
      <trkpt lat="47.372664" lon="8.490770">
        <ele>448.265685</ele>
        <time>2022-04-06T14:12:39.999Z</time>
      </trkpt>
      <trkpt lat="47.372561" lon="8.490767">
        <ele>448.126402</ele>
        <time>2022-04-06T14:12:47.999Z</time>
      </trkpt>
      <trkpt lat="47.372466" lon="8.490808">
        <ele>447.992588</ele>
        <time>2022-04-06T14:12:54.999Z</time>
      </trkpt>
      <trkpt lat="47.372384" lon="8.490879">
        <ele>447.864070</ele>
        <time>2022-04-06T14:13:00.999Z</time>
      </trkpt>
      <trkpt lat="47.372281" lon="8.490924">
        <ele>447.718846</ele>
        <time>2022-04-06T14:13:07.999Z</time>
      </trkpt>
      <trkpt lat="47.372190" lon="8.490974">
        <ele>447.587572</ele>
        <time>2022-04-06T14:13:13.999Z</time>
      </trkpt>
      <trkpt lat="47.372094" lon="8.490969">
        <ele>447.457700</ele>
        <time>2022-04-06T14:13:23.999Z</time>
      </trkpt>
      <trkpt lat="47.371997" lon="8.490997">
        <ele>447.324073</ele>
        <time>2022-04-06T14:13:30.999Z</time>
      </trkpt>
      <trkpt lat="47.371914" lon="8.491047">
        <ele>447.202877</ele>
        <time>2022-04-06T14:13:39.998Z</time>
      </trkpt>
      <trkpt lat="47.371809" lon="8.491000">
        <ele>447.054538</ele>
        <time>2022-04-06T14:13:43.998Z</time>
      </trkpt>
      <trkpt lat="47.371722" lon="8.490927">
        <ele>446.919249</ele>
        <time>2022-04-06T14:13:52.998Z</time>
      </trkpt>
      <trkpt lat="47.371629" lon="8.490949">
        <ele>446.791909</ele>
        <time>2022-04-06T14:13:58.998Z</time>
      </trkpt>
      <trkpt lat="47.371536" lon="8.490948">
        <ele>446.666170</ele>
        <time>2022-04-06T14:14:06.998Z</time>
      </trkpt>
      <trkpt lat="47.371443" lon="8.490903">
        <ele>446.533855</ele>
        <time>2022-04-06T14:14:12.998Z</time>
      </trkpt>
      <trkpt lat="47.371341" lon="8.490894">
        <ele>446.395705</ele>
        <time>2022-04-06T14:14:19.000Z</time>
      </trkpt>
      <trkpt lat="47.371244" lon="8.490845">
        <ele>446.257098</ele>
        <time>2022-04-06T14:14:26.999Z</time>
      </trkpt>
      <trkpt lat="47.371145" lon="8.490832">
        <ele>446.122722</ele>
        <time>2022-04-06T14:14:35.000Z</time>
      </trkpt>
      <trkpt lat="47.371048" lon="8.490850">
        <ele>446.101329</ele>
        <time>2022-04-06T14:14:43.000Z</time>
      </trkpt>
      <trkpt lat="47.370953" lon="8.490905">
        <ele>446.130779</ele>
        <time>2022-04-06T14:14:49.999Z</time>
      </trkpt>
      <trkpt lat="47.370865" lon="8.490961">
        <ele>446.158436</ele>
        <time>2022-04-06T14:14:56.999Z</time>
      </trkpt>
      <trkpt lat="47.370774" lon="8.491021">
        <ele>446.187199</ele>
        <time>2022-04-06T14:15:05.999Z</time>
      </trkpt>
      <trkpt lat="47.370679" lon="8.491104">
        <ele>446.219057</ele>
        <time>2022-04-06T14:15:12.999Z</time>
      </trkpt>
      <trkpt lat="47.370609" lon="8.491207">
        <ele>446.247579</ele>
        <time>2022-04-06T14:15:20.999Z</time>
      </trkpt>
      <trkpt lat="47.370537" lon="8.491287">
        <ele>446.273586</ele>
        <time>2022-04-06T14:15:28.999Z</time>
      </trkpt>
      <trkpt lat="47.370432" lon="8.491331">
        <ele>446.305087</ele>
        <time>2022-04-06T14:15:38.999Z</time>
      </trkpt>
      <trkpt lat="47.370357" lon="8.491415">
        <ele>446.332255</ele>
        <time>2022-04-06T14:15:44.999Z</time>
      </trkpt>
      <trkpt lat="47.370452" lon="8.491470">
        <ele>446.361706</ele>
        <time>2022-04-06T14:16:07.998Z</time>
      </trkpt>
      <trkpt lat="47.370535" lon="8.491395">
        <ele>446.389791</ele>
        <time>2022-04-06T14:16:14.998Z</time>
      </trkpt>
      <trkpt lat="47.370619" lon="8.491315">
        <ele>446.418640</ele>
        <time>2022-04-06T14:16:22.998Z</time>
      </trkpt>
      <trkpt lat="47.370716" lon="8.491293">
        <ele>446.446964</ele>
        <time>2022-04-06T14:16:29.000Z</time>
      </trkpt>
      <trkpt lat="47.370754" lon="8.491169">
        <ele>446.473567</ele>
        <time>2022-04-06T14:16:40.000Z</time>
      </trkpt>
      <trkpt lat="47.370813" lon="8.491047">
        <ele>446.502869</ele>
        <time>2022-04-06T14:16:47.999Z</time>
      </trkpt>
      <trkpt lat="47.370895" lon="8.490946">
        <ele>446.533688</ele>
        <time>2022-04-06T14:16:55.999Z</time>
      </trkpt>
      <trkpt lat="47.371002" lon="8.490905">
        <ele>446.565593</ele>
        <time>2022-04-06T14:17:04.999Z</time>
      </trkpt>
      <trkpt lat="47.371094" lon="8.490903">
        <ele>446.592148</ele>
        <time>2022-04-06T14:17:10.999Z</time>
      </trkpt>
      <trkpt lat="47.371188" lon="8.490894">
        <ele>446.617377</ele>
        <time>2022-04-06T14:17:17.999Z</time>
      </trkpt>
      <trkpt lat="47.371283" lon="8.490896">
        <ele>446.641877</ele>
        <time>2022-04-06T14:17:30.999Z</time>
      </trkpt>
      <trkpt lat="47.371246" lon="8.490767">
        <ele>446.666343</ele>
        <time>2022-04-06T14:17:44.998Z</time>
      </trkpt>
      <trkpt lat="47.371301" lon="8.490659">
        <ele>446.689942</ele>
        <time>2022-04-06T14:17:51.998Z</time>
      </trkpt>
      <trkpt lat="47.371323" lon="8.490791">
        <ele>446.713682</ele>
        <time>2022-04-06T14:18:11.998Z</time>
      </trkpt>
      <trkpt lat="47.371277" lon="8.490917">
        <ele>446.738681</ele>
        <time>2022-04-06T14:18:19.998Z</time>
      </trkpt>
      <trkpt lat="47.371348" lon="8.491016">
        <ele>446.763863</ele>
        <time>2022-04-06T14:18:30.000Z</time>
      </trkpt>
      <trkpt lat="47.371433" lon="8.491059">
        <ele>446.787032</ele>
        <time>2022-04-06T14:18:38.000Z</time>
      </trkpt>
      <trkpt lat="47.371527" lon="8.491067">
        <ele>446.811312</ele>
        <time>2022-04-06T14:18:43.000Z</time>
      </trkpt>
      <trkpt lat="47.371624" lon="8.491049">
        <ele>446.836523</ele>
        <time>2022-04-06T14:18:48.999Z</time>
      </trkpt>
      <trkpt lat="47.371695" lon="8.490966">
        <ele>446.859875</ele>
        <time>2022-04-06T14:18:55.999Z</time>
      </trkpt>
      <trkpt lat="47.371787" lon="8.490914">
        <ele>446.885278</ele>
        <time>2022-04-06T14:19:04.999Z</time>
      </trkpt>
      <trkpt lat="47.371882" lon="8.490897">
        <ele>446.909954</ele>
        <time>2022-04-06T14:19:11.999Z</time>
      </trkpt>
      <trkpt lat="47.371967" lon="8.490941">
        <ele>446.933181</ele>
        <time>2022-04-06T14:19:16.999Z</time>
      </trkpt>
      <trkpt lat="47.372067" lon="8.490983">
        <ele>446.959991</ele>
        <time>2022-04-06T14:19:21.999Z</time>
      </trkpt>
      <trkpt lat="47.372152" lon="8.490907">
        <ele>446.985616</ele>
        <time>2022-04-06T14:19:30.999Z</time>
      </trkpt>
      <trkpt lat="47.372253" lon="8.490919">
        <ele>447.011745</ele>
        <time>2022-04-06T14:19:38.999Z</time>
      </trkpt>
      <trkpt lat="47.372351" lon="8.490901">
        <ele>447.037211</ele>
        <time>2022-04-06T14:19:46.999Z</time>
      </trkpt>
      <trkpt lat="47.372451" lon="8.490892">
        <ele>447.063046</ele>
        <time>2022-04-06T14:19:52.998Z</time>
      </trkpt>
      <trkpt lat="47.372545" lon="8.490882">
        <ele>446.306612</ele>
        <time>2022-04-06T14:20:06.998Z</time>
      </trkpt>
      <trkpt lat="47.372639" lon="8.490826">
        <ele>445.428931</ele>
        <time>2022-04-06T14:20:12.998Z</time>
      </trkpt>
      <trkpt lat="47.372740" lon="8.490799">
        <ele>444.540169</ele>
        <time>2022-04-06T14:20:18.998Z</time>
      </trkpt>
      <trkpt lat="47.372826" lon="8.490870">
        <ele>443.687020</ele>
        <time>2022-04-06T14:20:28.998Z</time>
      </trkpt>
      <trkpt lat="47.372734" lon="8.490849">
        <ele>442.880943</ele>
        <time>2022-04-06T14:20:45.000Z</time>
      </trkpt>
      <trkpt lat="47.372831" lon="8.490763">
        <ele>441.901264</ele>
        <time>2022-04-06T14:20:57.999Z</time>
      </trkpt>
      <trkpt lat="47.372923" lon="8.490703">
        <ele>441.030409</ele>
        <time>2022-04-06T14:21:03.999Z</time>
      </trkpt>
      <trkpt lat="47.372997" lon="8.490619">
        <ele>440.222203</ele>
        <time>2022-04-06T14:21:09.999Z</time>
      </trkpt>
      <trkpt lat="47.373095" lon="8.490576">
        <ele>439.336964</ele>
        <time>2022-04-06T14:21:16.999Z</time>
      </trkpt>
      <trkpt lat="47.373158" lon="8.490414">
        <ele>438.241515</ele>
        <time>2022-04-06T14:21:20.999Z</time>
      </trkpt>
      <trkpt lat="47.373196" lon="8.490287">
        <ele>437.427342</ele>
        <time>2022-04-06T14:21:24.999Z</time>
      </trkpt>
      <trkpt lat="47.373236" lon="8.490157">
        <ele>436.590035</ele>
        <time>2022-04-06T14:21:30.999Z</time>
      </trkpt>
      <trkpt lat="47.373285" lon="8.490034">
        <ele>435.753230</ele>
        <time>2022-04-06T14:21:37.999Z</time>
      </trkpt>
      <trkpt lat="47.373343" lon="8.489920">
        <ele>434.917110</ele>
        <time>2022-04-06T14:21:43.999Z</time>
      </trkpt>
      <trkpt lat="47.373371" lon="8.489788">
        <ele>434.105988</ele>
        <time>2022-04-06T14:21:50.998Z</time>
      </trkpt>
      <trkpt lat="47.373456" lon="8.489734">
        <ele>433.304758</ele>
        <time>2022-04-06T14:22:00.998Z</time>
      </trkpt>
      <trkpt lat="47.373546" lon="8.489692">
        <ele>432.487469</ele>
        <time>2022-04-06T14:22:07.998Z</time>
      </trkpt>
      <trkpt lat="47.373642" lon="8.489638">
        <ele>431.597949</ele>
        <time>2022-04-06T14:22:14.998Z</time>
      </trkpt>
      <trkpt lat="47.373722" lon="8.489571">
        <ele>431.655874</ele>
        <time>2022-04-06T14:22:23.998Z</time>
      </trkpt>
      <trkpt lat="47.373792" lon="8.489458">
        <ele>431.871337</ele>
        <time>2022-04-06T14:22:30.998Z</time>
      </trkpt>
      <trkpt lat="47.373873" lon="8.489392">
        <ele>432.063535</ele>
        <time>2022-04-06T14:22:37.998Z</time>
      </trkpt>
      <trkpt lat="47.373936" lon="8.489290">
        <ele>432.257762</ele>
        <time>2022-04-06T14:22:47.000Z</time>
      </trkpt>
      <trkpt lat="47.373999" lon="8.489182">
        <ele>432.458308</ele>
        <time>2022-04-06T14:22:55.000Z</time>
      </trkpt>
      <trkpt lat="47.374061" lon="8.489067">
        <ele>432.665114</ele>
        <time>2022-04-06T14:23:03.000Z</time>
      </trkpt>
      <trkpt lat="47.374125" lon="8.488950">
        <ele>432.876714</ele>
        <time>2022-04-06T14:23:11.999Z</time>
      </trkpt>
      <trkpt lat="47.374187" lon="8.488829">
        <ele>433.090188</ele>
        <time>2022-04-06T14:23:19.999Z</time>
      </trkpt>
      <trkpt lat="47.374263" lon="8.488734">
        <ele>433.297055</ele>
        <time>2022-04-06T14:23:28.999Z</time>
      </trkpt>
      <trkpt lat="47.374327" lon="8.488619">
        <ele>433.506473</ele>
        <time>2022-04-06T14:23:36.999Z</time>
      </trkpt>
      <trkpt lat="47.374365" lon="8.488481">
        <ele>433.716063</ele>
        <time>2022-04-06T14:23:42.999Z</time>
      </trkpt>
      <trkpt lat="47.374463" lon="8.488532">
        <ele>433.931933</ele>
        <time>2022-04-06T14:23:52.999Z</time>
      </trkpt>
      <trkpt lat="47.374546" lon="8.488664">
        <ele>434.185354</ele>
        <time>2022-04-06T14:23:56.999Z</time>
      </trkpt>
      <trkpt lat="47.374613" lon="8.488787">
        <ele>434.407437</ele>
        <time>2022-04-06T14:24:01.999Z</time>
      </trkpt>
      <trkpt lat="47.374700" lon="8.488869">
        <ele>434.621860</ele>
        <time>2022-04-06T14:24:08.999Z</time>
      </trkpt>
      <trkpt lat="47.374735" lon="8.488999">
        <ele>434.818681</ele>
        <time>2022-04-06T14:24:16.999Z</time>
      </trkpt>
      <trkpt lat="47.374796" lon="8.489111">
        <ele>435.020892</ele>
        <time>2022-04-06T14:24:23.998Z</time>
      </trkpt>
      <trkpt lat="47.374814" lon="8.489252">
        <ele>435.222758</ele>
        <time>2022-04-06T14:24:31.998Z</time>
      </trkpt>
      <trkpt lat="47.374731" lon="8.489321">
        <ele>435.227279</ele>
        <time>2022-04-06T14:24:39.998Z</time>
      </trkpt>
      <trkpt lat="47.374679" lon="8.489437">
        <ele>435.227279</ele>
        <time>2022-04-06T14:24:48.000Z</time>
      </trkpt>
      <trkpt lat="47.374640" lon="8.489561">
        <ele>435.227279</ele>
        <time>2022-04-06T14:24:57.000Z</time>
      </trkpt>
      <trkpt lat="47.374592" lon="8.489696">
        <ele>435.227279</ele>
        <time>2022-04-06T14:25:02.999Z</time>
      </trkpt>
      <trkpt lat="47.374573" lon="8.489834">
        <ele>435.227279</ele>
        <time>2022-04-06T14:25:11.999Z</time>
      </trkpt>
      <trkpt lat="47.374581" lon="8.489992">
        <ele>435.227279</ele>
        <time>2022-04-06T14:25:21.999Z</time>
      </trkpt>
      <trkpt lat="47.374531" lon="8.490117">
        <ele>435.227279</ele>
        <time>2022-04-06T14:25:27.999Z</time>
      </trkpt>
      <trkpt lat="47.374507" lon="8.490259">
        <ele>435.227279</ele>
        <time>2022-04-06T14:25:34.999Z</time>
      </trkpt>
      <trkpt lat="47.374472" lon="8.490397">
        <ele>435.227279</ele>
        <time>2022-04-06T14:25:40.999Z</time>
      </trkpt>
      <trkpt lat="47.374436" lon="8.490520">
        <ele>435.227279</ele>
        <time>2022-04-06T14:25:47.999Z</time>
      </trkpt>
      <trkpt lat="47.374385" lon="8.490647">
        <ele>435.227279</ele>
        <time>2022-04-06T14:25:55.999Z</time>
      </trkpt>
      <trkpt lat="47.374368" lon="8.490780">
        <ele>435.227279</ele>
        <time>2022-04-06T14:26:01.999Z</time>
      </trkpt>
      <trkpt lat="47.374323" lon="8.490923">
        <ele>435.227279</ele>
        <time>2022-04-06T14:26:09.998Z</time>
      </trkpt>
      <trkpt lat="47.374286" lon="8.491058">
        <ele>435.227279</ele>
        <time>2022-04-06T14:26:15.998Z</time>
      </trkpt>
      <trkpt lat="47.374262" lon="8.491192">
        <ele>435.227279</ele>
        <time>2022-04-06T14:26:20.998Z</time>
      </trkpt>
      <trkpt lat="47.374281" lon="8.491325">
        <ele>435.227279</ele>
        <time>2022-04-06T14:26:25.998Z</time>
      </trkpt>
      <trkpt lat="47.374309" lon="8.491452">
        <ele>435.227279</ele>
        <time>2022-04-06T14:26:31.998Z</time>
      </trkpt>
      <trkpt lat="47.374243" lon="8.491563">
        <ele>435.227279</ele>
        <time>2022-04-06T14:26:39.998Z</time>
      </trkpt>
      <trkpt lat="47.374223" lon="8.491702">
        <ele>435.227279</ele>
        <time>2022-04-06T14:26:46.998Z</time>
      </trkpt>
      <trkpt lat="47.374238" lon="8.491844">
        <ele>435.227279</ele>
        <time>2022-04-06T14:26:57.000Z</time>
      </trkpt>
      <trkpt lat="47.374220" lon="8.491984">
        <ele>435.227279</ele>
        <time>2022-04-06T14:27:05.999Z</time>
      </trkpt>
      <trkpt lat="47.374174" lon="8.492112">
        <ele>435.227279</ele>
        <time>2022-04-06T14:27:12.999Z</time>
      </trkpt>
    </trkseg>
  </trk>
</gpx>